sensor_id;sensor_type;location;lat;lon;timestamp;temperature;humidity
6379;DHT22;3222;48.858;10.128;2023-06-22T00:01:18;21.40;99.90
6379;DHT22;3222;48.858;10.128;2023-06-22T00:03:44;21.30;99.90
6379;DHT22;3222;48.858;10.128;2023-06-22T00:06:10;21.20;99.90
6379;DHT22;3222;48.858;10.128;2023-06-22T00:08:36;21.10;99.90
6379;DHT22;3222;48.858;10.128;2023-06-22T00:11:02;21.00;99.90
6379;DHT22;3222;48.858;10.128;2023-06-22T00:13:27;21.00;99.90
6379;DHT22;3222;48.858;10.128;2023-06-22T00:15:53;21.00;99.90
6379;DHT22;3222;48.858;10.128;2023-06-22T00:18:19;21.10;99.90
6379;DHT22;3222;48.858;10.128;2023-06-22T00:20:45;21.10;99.90
6379;DHT22;3222;48.858;10.128;2023-06-22T00:23:12;21.10;99.90
6379;DHT22;3222;48.858;10.128;2023-06-22T00:25:39;21.10;99.90
6379;DHT22;3222;48.858;10.128;2023-06-22T00:28:06;21.20;99.90
6379;DHT22;3222;48.858;10.128;2023-06-22T00:30:34;21.10;99.90
6379;DHT22;3222;48.858;10.128;2023-06-22T00:33:00;21.20;99.90
6379;DHT22;3222;48.858;10.128;2023-06-22T00:35:27;21.20;99.90
6379;DHT22;3222;48.858;10.128;2023-06-22T00:37:55;21.10;99.90
6379;DHT22;3222;48.858;10.128;2023-06-22T00:40:30;21.20;99.90
6379;DHT22;3222;48.858;10.128;2023-06-22T00:42:57;21.30;99.90
6379;DHT22;3222;48.858;10.128;2023-06-22T00:45:24;21.30;99.90
6379;DHT22;3222;48.858;10.128;2023-06-22T00:47:55;21.30;99.90
6379;DHT22;3222;48.858;10.128;2023-06-22T00:50:23;21.50;99.90
6379;DHT22;3222;48.858;10.128;2023-06-22T00:52:57;21.50;99.90
6379;DHT22;3222;48.858;10.128;2023-06-22T00:55:24;21.60;99.90
6379;DHT22;3222;48.858;10.128;2023-06-22T00:57:51;21.40;99.90
6379;DHT22;3222;48.858;10.128;2023-06-22T01:00:22;21.40;99.90
6379;DHT22;3222;48.858;10.128;2023-06-22T01:02:51;21.30;99.90
6379;DHT22;3222;48.858;10.128;2023-06-22T01:05:18;21.40;99.90
6379;DHT22;3222;48.858;10.128;2023-06-22T01:14:27;21.30;99.90
6379;DHT22;3222;48.858;10.128;2023-06-22T01:16:24;21.30;99.90
6379;DHT22;3222;48.858;10.128;2023-06-22T01:18:54;21.30;99.90
6379;DHT22;3222;48.858;10.128;2023-06-22T01:21:22;21.30;99.90
6379;DHT22;3222;48.858;10.128;2023-06-22T01:29:24;21.20;99.90
6379;DHT22;3222;48.858;10.128;2023-06-22T01:31:53;21.20;99.90
6379;DHT22;3222;48.858;10.128;2023-06-22T01:34:19;21.20;99.90
6379;DHT22;3222;48.858;10.128;2023-06-22T01:36:47;21.10;99.90
6379;DHT22;3222;48.858;10.128;2023-06-22T01:39:13;21.20;99.90
6379;DHT22;3222;48.858;10.128;2023-06-22T01:41:40;21.10;99.90
6379;DHT22;3222;48.858;10.128;2023-06-22T01:44:08;21.20;99.90
6379;DHT22;3222;48.858;10.128;2023-06-22T01:46:35;21.20;99.90
6379;DHT22;3222;48.858;10.128;2023-06-22T01:49:05;21.20;99.90
6379;DHT22;3222;48.858;10.128;2023-06-22T01:51:31;21.20;99.90
6379;DHT22;3222;48.858;10.128;2023-06-22T01:53:59;21.20;99.90
6379;DHT22;3222;48.858;10.128;2023-06-22T01:56:25;21.20;99.90
6379;DHT22;3222;48.858;10.128;2023-06-22T01:59:01;21.20;99.90
6379;DHT22;3222;48.858;10.128;2023-06-22T02:01:33;21.10;99.90
6379;DHT22;3222;48.858;10.128;2023-06-22T02:04:08;21.10;99.90
6379;DHT22;3222;48.858;10.128;2023-06-22T02:06:39;21.00;99.90
6379;DHT22;3222;48.858;10.128;2023-06-22T02:09:12;21.00;99.90
6379;DHT22;3222;48.858;10.128;2023-06-22T02:11:41;20.90;99.90
6379;DHT22;3222;48.858;10.128;2023-06-22T02:14:08;20.80;99.90
6379;DHT22;3222;48.858;10.128;2023-06-22T02:16:35;20.80;99.90
6379;DHT22;3222;48.858;10.128;2023-06-22T02:19:02;20.70;99.90
6379;DHT22;3222;48.858;10.128;2023-06-22T02:21:30;20.60;99.90
6379;DHT22;3222;48.858;10.128;2023-06-22T02:23:56;20.60;99.90
6379;DHT22;3222;48.858;10.128;2023-06-22T02:26:22;20.60;99.90
6379;DHT22;3222;48.858;10.128;2023-06-22T02:28:49;20.60;99.90
6379;DHT22;3222;48.858;10.128;2023-06-22T02:31:16;20.70;99.90
6379;DHT22;3222;48.858;10.128;2023-06-22T02:33:42;20.70;99.90
6379;DHT22;3222;48.858;10.128;2023-06-22T02:36:09;20.60;99.90
6379;DHT22;3222;48.858;10.128;2023-06-22T02:38:41;20.50;99.90
6379;DHT22;3222;48.858;10.128;2023-06-22T02:41:14;20.50;99.90
6379;DHT22;3222;48.858;10.128;2023-06-22T02:43:46;20.70;99.90
6379;DHT22;3222;48.858;10.128;2023-06-22T02:46:13;20.80;99.90
6379;DHT22;3222;48.858;10.128;2023-06-22T02:48:40;20.90;99.90
6379;DHT22;3222;48.858;10.128;2023-06-22T02:51:07;21.00;99.90
6379;DHT22;3222;48.858;10.128;2023-06-22T02:53:34;21.00;99.90
6379;DHT22;3222;48.858;10.128;2023-06-22T02:56:04;21.00;99.90
6379;DHT22;3222;48.858;10.128;2023-06-22T02:58:35;21.00;99.90
6379;DHT22;3222;48.858;10.128;2023-06-22T03:01:07;20.90;99.90
6379;DHT22;3222;48.858;10.128;2023-06-22T03:03:34;20.80;99.90
6379;DHT22;3222;48.858;10.128;2023-06-22T03:06:00;20.80;99.90
6379;DHT22;3222;48.858;10.128;2023-06-22T03:08:28;20.90;99.90
6379;DHT22;3222;48.858;10.128;2023-06-22T03:10:55;20.90;99.90
6379;DHT22;3222;48.858;10.128;2023-06-22T03:13:21;21.00;99.90
6379;DHT22;3222;48.858;10.128;2023-06-22T03:15:47;21.00;99.90
6379;DHT22;3222;48.858;10.128;2023-06-22T03:18:13;21.00;99.90
6379;DHT22;3222;48.858;10.128;2023-06-22T03:20:38;21.00;99.90
6379;DHT22;3222;48.858;10.128;2023-06-22T03:23:04;20.90;99.90
6379;DHT22;3222;48.858;10.128;2023-06-22T03:25:31;20.80;99.90
6379;DHT22;3222;48.858;10.128;2023-06-22T03:27:59;20.80;99.90
6379;DHT22;3222;48.858;10.128;2023-06-22T03:30:26;20.80;99.90
6379;DHT22;3222;48.858;10.128;2023-06-22T03:32:51;20.80;99.90
6379;DHT22;3222;48.858;10.128;2023-06-22T03:35:17;20.80;99.90
6379;DHT22;3222;48.858;10.128;2023-06-22T03:37:43;20.90;99.90
6379;DHT22;3222;48.858;10.128;2023-06-22T03:40:09;20.90;99.90
6379;DHT22;3222;48.858;10.128;2023-06-22T03:42:35;20.80;99.90
6379;DHT22;3222;48.858;10.128;2023-06-22T03:45:04;20.80;99.90
6379;DHT22;3222;48.858;10.128;2023-06-22T03:47:30;20.80;99.90
6379;DHT22;3222;48.858;10.128;2023-06-22T03:49:57;20.80;99.90
6379;DHT22;3222;48.858;10.128;2023-06-22T03:52:23;20.70;99.90
6379;DHT22;3222;48.858;10.128;2023-06-22T03:54:49;20.70;99.90
6379;DHT22;3222;48.858;10.128;2023-06-22T03:57:14;20.80;99.90
6379;DHT22;3222;48.858;10.128;2023-06-22T03:59:40;20.80;99.90
6379;DHT22;3222;48.858;10.128;2023-06-22T04:02:05;20.80;99.90
6379;DHT22;3222;48.858;10.128;2023-06-22T04:04:31;20.80;99.90
6379;DHT22;3222;48.858;10.128;2023-06-22T04:06:57;20.80;99.90
6379;DHT22;3222;48.858;10.128;2023-06-22T04:09:23;20.70;99.90
6379;DHT22;3222;48.858;10.128;2023-06-22T04:11:49;20.70;99.90
6379;DHT22;3222;48.858;10.128;2023-06-22T04:14:15;20.70;99.90
6379;DHT22;3222;48.858;10.128;2023-06-22T04:16:40;20.80;99.90
6379;DHT22;3222;48.858;10.128;2023-06-22T04:19:06;20.70;99.90
6379;DHT22;3222;48.858;10.128;2023-06-22T04:21:32;20.70;99.90
6379;DHT22;3222;48.858;10.128;2023-06-22T04:23:57;20.70;99.90
6379;DHT22;3222;48.858;10.128;2023-06-22T04:26:23;20.70;99.90
6379;DHT22;3222;48.858;10.128;2023-06-22T04:28:49;20.70;99.90
6379;DHT22;3222;48.858;10.128;2023-06-22T04:31:21;20.80;99.90
6379;DHT22;3222;48.858;10.128;2023-06-22T04:33:46;20.80;99.90
6379;DHT22;3222;48.858;10.128;2023-06-22T04:36:12;20.80;99.90
6379;DHT22;3222;48.858;10.128;2023-06-22T04:38:39;20.80;99.90
6379;DHT22;3222;48.858;10.128;2023-06-22T04:41:05;20.80;99.90
6379;DHT22;3222;48.858;10.128;2023-06-22T04:43:34;20.70;99.90
6379;DHT22;3222;48.858;10.128;2023-06-22T04:45:59;20.80;99.90
6379;DHT22;3222;48.858;10.128;2023-06-22T04:48:32;20.70;99.90
6379;DHT22;3222;48.858;10.128;2023-06-22T04:50:59;20.70;99.90
6379;DHT22;3222;48.858;10.128;2023-06-22T04:53:29;20.70;99.90
6379;DHT22;3222;48.858;10.128;2023-06-22T04:55:55;20.60;99.90
6379;DHT22;3222;48.858;10.128;2023-06-22T04:58:21;20.60;99.90
6379;DHT22;3222;48.858;10.128;2023-06-22T05:00:47;20.70;99.90
6379;DHT22;3222;48.858;10.128;2023-06-22T05:03:13;20.70;99.90
6379;DHT22;3222;48.858;10.128;2023-06-22T05:05:38;20.70;99.90
6379;DHT22;3222;48.858;10.128;2023-06-22T05:08:05;20.70;99.90
6379;DHT22;3222;48.858;10.128;2023-06-22T05:10:33;20.80;99.90
6379;DHT22;3222;48.858;10.128;2023-06-22T05:12:59;20.80;99.90
6379;DHT22;3222;48.858;10.128;2023-06-22T05:15:24;20.70;99.90
6379;DHT22;3222;48.858;10.128;2023-06-22T05:17:53;20.70;99.90
6379;DHT22;3222;48.858;10.128;2023-06-22T05:20:20;20.70;99.90
6379;DHT22;3222;48.858;10.128;2023-06-22T05:22:47;20.70;99.90
6379;DHT22;3222;48.858;10.128;2023-06-22T05:25:13;20.70;99.90
6379;DHT22;3222;48.858;10.128;2023-06-22T05:27:39;20.70;99.90
6379;DHT22;3222;48.858;10.128;2023-06-22T05:30:09;20.70;99.90
6379;DHT22;3222;48.858;10.128;2023-06-22T05:32:36;20.70;99.90
6379;DHT22;3222;48.858;10.128;2023-06-22T05:35:02;20.70;99.90
6379;DHT22;3222;48.858;10.128;2023-06-22T05:37:29;20.70;99.90
6379;DHT22;3222;48.858;10.128;2023-06-22T05:39:55;20.70;99.90
6379;DHT22;3222;48.858;10.128;2023-06-22T05:42:21;20.70;99.90
6379;DHT22;3222;48.858;10.128;2023-06-22T05:44:47;20.70;99.90
6379;DHT22;3222;48.858;10.128;2023-06-22T05:47:13;20.80;99.90
6379;DHT22;3222;48.858;10.128;2023-06-22T05:49:38;20.80;99.90
6379;DHT22;3222;48.858;10.128;2023-06-22T05:52:04;20.80;99.90
6379;DHT22;3222;48.858;10.128;2023-06-22T05:54:30;20.80;99.90
6379;DHT22;3222;48.858;10.128;2023-06-22T05:56:55;20.90;99.90
6379;DHT22;3222;48.858;10.128;2023-06-22T05:59:21;20.90;99.90
6379;DHT22;3222;48.858;10.128;2023-06-22T06:01:47;20.90;99.90
6379;DHT22;3222;48.858;10.128;2023-06-22T06:04:18;20.90;99.90
6379;DHT22;3222;48.858;10.128;2023-06-22T06:06:44;20.90;99.90
6379;DHT22;3222;48.858;10.128;2023-06-22T06:09:10;20.90;99.90
6379;DHT22;3222;48.858;10.128;2023-06-22T06:11:37;20.90;99.90
6379;DHT22;3222;48.858;10.128;2023-06-22T06:14:03;21.00;99.90
6379;DHT22;3222;48.858;10.128;2023-06-22T06:16:29;21.10;99.90
6379;DHT22;3222;48.858;10.128;2023-06-22T06:18:54;21.10;99.90
6379;DHT22;3222;48.858;10.128;2023-06-22T06:21:22;21.20;99.90
6379;DHT22;3222;48.858;10.128;2023-06-22T06:23:47;21.20;99.90
6379;DHT22;3222;48.858;10.128;2023-06-22T06:26:13;21.30;99.90
6379;DHT22;3222;48.858;10.128;2023-06-22T06:28:42;21.30;99.90
6379;DHT22;3222;48.858;10.128;2023-06-22T06:31:07;21.30;99.90
6379;DHT22;3222;48.858;10.128;2023-06-22T06:33:34;21.40;99.90
6379;DHT22;3222;48.858;10.128;2023-06-22T06:36:00;21.40;99.90
6379;DHT22;3222;48.858;10.128;2023-06-22T06:38:31;21.40;99.90
6379;DHT22;3222;48.858;10.128;2023-06-22T06:40:58;21.40;99.90
6379;DHT22;3222;48.858;10.128;2023-06-22T06:43:24;21.40;99.90
6379;DHT22;3222;48.858;10.128;2023-06-22T06:45:50;21.40;99.90
6379;DHT22;3222;48.858;10.128;2023-06-22T06:48:16;21.50;99.90
6379;DHT22;3222;48.858;10.128;2023-06-22T06:50:43;21.60;99.90
6379;DHT22;3222;48.858;10.128;2023-06-22T06:53:09;21.60;99.90
6379;DHT22;3222;48.858;10.128;2023-06-22T06:55:35;21.50;99.90
6379;DHT22;3222;48.858;10.128;2023-06-22T06:58:02;21.60;99.90
6379;DHT22;3222;48.858;10.128;2023-06-22T07:00:29;21.60;99.90
6379;DHT22;3222;48.858;10.128;2023-06-22T07:02:55;21.70;99.90
6379;DHT22;3222;48.858;10.128;2023-06-22T07:05:20;21.80;99.90
6379;DHT22;3222;48.858;10.128;2023-06-22T07:07:46;21.80;99.90
6379;DHT22;3222;48.858;10.128;2023-06-22T07:10:12;21.80;99.90
6379;DHT22;3222;48.858;10.128;2023-06-22T07:12:38;21.90;99.90
6379;DHT22;3222;48.858;10.128;2023-06-22T07:15:05;22.00;99.90
6379;DHT22;3222;48.858;10.128;2023-06-22T07:17:33;22.00;99.90
6379;DHT22;3222;48.858;10.128;2023-06-22T07:19:59;22.00;99.90
6379;DHT22;3222;48.858;10.128;2023-06-22T07:22:25;22.00;99.90
6379;DHT22;3222;48.858;10.128;2023-06-22T07:24:51;22.10;99.90
6379;DHT22;3222;48.858;10.128;2023-06-22T07:27:16;22.10;99.90
6379;DHT22;3222;48.858;10.128;2023-06-22T07:29:45;22.10;99.90
6379;DHT22;3222;48.858;10.128;2023-06-22T07:32:11;22.10;99.90
6379;DHT22;3222;48.858;10.128;2023-06-22T07:34:37;22.20;99.90
6379;DHT22;3222;48.858;10.128;2023-06-22T07:37:02;22.30;99.90
6379;DHT22;3222;48.858;10.128;2023-06-22T07:39:30;22.40;99.90
6379;DHT22;3222;48.858;10.128;2023-06-22T07:41:56;22.40;99.90
6379;DHT22;3222;48.858;10.128;2023-06-22T07:44:21;22.40;99.90
6379;DHT22;3222;48.858;10.128;2023-06-22T07:46:47;22.50;99.90
6379;DHT22;3222;48.858;10.128;2023-06-22T07:49:13;22.50;99.90
6379;DHT22;3222;48.858;10.128;2023-06-22T07:51:39;22.60;99.90
6379;DHT22;3222;48.858;10.128;2023-06-22T07:54:04;22.60;99.90
6379;DHT22;3222;48.858;10.128;2023-06-22T07:56:30;22.70;99.90
6379;DHT22;3222;48.858;10.128;2023-06-22T07:58:56;22.70;99.90
6379;DHT22;3222;48.858;10.128;2023-06-22T08:01:23;22.70;99.90
6379;DHT22;3222;48.858;10.128;2023-06-22T08:03:49;22.80;99.90
6379;DHT22;3222;48.858;10.128;2023-06-22T08:06:15;22.90;99.90
6379;DHT22;3222;48.858;10.128;2023-06-22T08:08:42;22.90;99.90
6379;DHT22;3222;48.858;10.128;2023-06-22T08:11:08;23.00;99.90
6379;DHT22;3222;48.858;10.128;2023-06-22T08:13:34;23.00;99.90
6379;DHT22;3222;48.858;10.128;2023-06-22T08:16:00;23.10;99.90
6379;DHT22;3222;48.858;10.128;2023-06-22T08:18:25;23.10;99.90
6379;DHT22;3222;48.858;10.128;2023-06-22T08:20:51;23.20;99.90
6379;DHT22;3222;48.858;10.128;2023-06-22T08:23:18;23.20;99.90
6379;DHT22;3222;48.858;10.128;2023-06-22T08:25:43;23.30;99.90
6379;DHT22;3222;48.858;10.128;2023-06-22T08:28:09;23.30;99.90
6379;DHT22;3222;48.858;10.128;2023-06-22T08:30:35;23.40;99.90
6379;DHT22;3222;48.858;10.128;2023-06-22T08:33:00;23.50;99.90
6379;DHT22;3222;48.858;10.128;2023-06-22T08:35:26;23.60;99.90
6379;DHT22;3222;48.858;10.128;2023-06-22T08:37:52;23.70;99.90
6379;DHT22;3222;48.858;10.128;2023-06-22T08:40:20;23.80;99.90
6379;DHT22;3222;48.858;10.128;2023-06-22T08:42:46;23.80;99.90
6379;DHT22;3222;48.858;10.128;2023-06-22T08:45:13;23.90;99.90
6379;DHT22;3222;48.858;10.128;2023-06-22T08:47:39;24.00;99.90
6379;DHT22;3222;48.858;10.128;2023-06-22T08:50:07;24.00;99.90
6379;DHT22;3222;48.858;10.128;2023-06-22T08:52:34;24.10;99.90
6379;DHT22;3222;48.858;10.128;2023-06-22T08:55:00;24.10;99.90
6379;DHT22;3222;48.858;10.128;2023-06-22T08:57:27;24.20;99.90
6379;DHT22;3222;48.858;10.128;2023-06-22T08:59:52;24.20;99.90
6379;DHT22;3222;48.858;10.128;2023-06-22T09:02:19;24.30;99.90
6379;DHT22;3222;48.858;10.128;2023-06-22T09:04:46;24.30;99.90
6379;DHT22;3222;48.858;10.128;2023-06-22T09:07:11;24.50;99.90
6379;DHT22;3222;48.858;10.128;2023-06-22T09:09:37;24.50;99.90
6379;DHT22;3222;48.858;10.128;2023-06-22T09:12:04;24.50;99.90
6379;DHT22;3222;48.858;10.128;2023-06-22T09:14:29;24.60;99.90
6379;DHT22;3222;48.858;10.128;2023-06-22T09:16:55;24.50;99.90
6379;DHT22;3222;48.858;10.128;2023-06-22T09:19:21;24.60;99.90
6379;DHT22;3222;48.858;10.128;2023-06-22T09:21:47;24.70;99.90
6379;DHT22;3222;48.858;10.128;2023-06-22T09:24:12;24.70;99.90
6379;DHT22;3222;48.858;10.128;2023-06-22T09:26:39;24.80;99.90
6379;DHT22;3222;48.858;10.128;2023-06-22T09:29:05;24.80;99.90
6379;DHT22;3222;48.858;10.128;2023-06-22T09:31:31;24.90;99.90
6379;DHT22;3222;48.858;10.128;2023-06-22T09:33:57;24.90;99.90
6379;DHT22;3222;48.858;10.128;2023-06-22T09:36:23;24.90;99.90
6379;DHT22;3222;48.858;10.128;2023-06-22T09:38:49;24.90;99.90
6379;DHT22;3222;48.858;10.128;2023-06-22T09:41:21;25.00;99.90
6379;DHT22;3222;48.858;10.128;2023-06-22T09:43:46;25.00;99.90
6379;DHT22;3222;48.858;10.128;2023-06-22T09:46:15;24.90;99.90
6379;DHT22;3222;48.858;10.128;2023-06-22T09:48:41;25.00;99.90
6379;DHT22;3222;48.858;10.128;2023-06-22T09:51:07;25.10;99.90
6379;DHT22;3222;48.858;10.128;2023-06-22T09:53:32;25.10;99.90
6379;DHT22;3222;48.858;10.128;2023-06-22T09:56:00;25.10;99.90
6379;DHT22;3222;48.858;10.128;2023-06-22T09:58:27;25.20;99.90
6379;DHT22;3222;48.858;10.128;2023-06-22T10:00:53;25.30;99.90
6379;DHT22;3222;48.858;10.128;2023-06-22T10:03:20;25.40;99.90
6379;DHT22;3222;48.858;10.128;2023-06-22T10:05:46;25.50;99.90
6379;DHT22;3222;48.858;10.128;2023-06-22T10:08:12;25.50;99.90
6379;DHT22;3222;48.858;10.128;2023-06-22T10:10:37;25.60;99.90
6379;DHT22;3222;48.858;10.128;2023-06-22T10:13:10;25.60;99.90
6379;DHT22;3222;48.858;10.128;2023-06-22T10:15:36;25.50;99.90
6379;DHT22;3222;48.858;10.128;2023-06-22T10:18:02;25.60;99.90
6379;DHT22;3222;48.858;10.128;2023-06-22T10:20:28;25.60;99.90
6379;DHT22;3222;48.858;10.128;2023-06-22T10:22:54;25.80;99.90
6379;DHT22;3222;48.858;10.128;2023-06-22T10:25:20;25.80;99.90
6379;DHT22;3222;48.858;10.128;2023-06-22T10:27:45;25.80;99.90
6379;DHT22;3222;48.858;10.128;2023-06-22T10:30:12;25.80;99.90
6379;DHT22;3222;48.858;10.128;2023-06-22T10:32:39;25.90;99.90
6379;DHT22;3222;48.858;10.128;2023-06-22T10:35:05;25.90;99.90
6379;DHT22;3222;48.858;10.128;2023-06-22T10:37:31;26.00;99.90
6379;DHT22;3222;48.858;10.128;2023-06-22T10:39:57;26.10;99.90
6379;DHT22;3222;48.858;10.128;2023-06-22T10:42:23;26.20;99.90
6379;DHT22;3222;48.858;10.128;2023-06-22T10:44:49;26.40;99.90
6379;DHT22;3222;48.858;10.128;2023-06-22T10:47:14;26.40;99.90
6379;DHT22;3222;48.858;10.128;2023-06-22T10:49:41;26.50;99.90
6379;DHT22;3222;48.858;10.128;2023-06-22T10:52:08;26.60;99.90
6379;DHT22;3222;48.858;10.128;2023-06-22T10:54:34;26.70;99.90
6379;DHT22;3222;48.858;10.128;2023-06-22T10:57:01;26.70;99.90
6379;DHT22;3222;48.858;10.128;2023-06-22T10:59:27;26.70;99.90
6379;DHT22;3222;48.858;10.128;2023-06-22T11:01:55;26.80;99.90
6379;DHT22;3222;48.858;10.128;2023-06-22T11:04:21;26.90;99.90
6379;DHT22;3222;48.858;10.128;2023-06-22T11:06:48;27.00;99.90
6379;DHT22;3222;48.858;10.128;2023-06-22T11:09:14;27.00;99.90
6379;DHT22;3222;48.858;10.128;2023-06-22T11:11:44;27.00;99.90
6379;DHT22;3222;48.858;10.128;2023-06-22T11:14:10;27.10;99.90
6379;DHT22;3222;48.858;10.128;2023-06-22T11:16:36;27.10;99.90
6379;DHT22;3222;48.858;10.128;2023-06-22T11:19:02;27.10;99.90
6379;DHT22;3222;48.858;10.128;2023-06-22T11:21:28;27.00;99.90
6379;DHT22;3222;48.858;10.128;2023-06-22T11:23:54;27.10;99.90
6379;DHT22;3222;48.858;10.128;2023-06-22T11:26:20;27.20;99.90
6379;DHT22;3222;48.858;10.128;2023-06-22T11:28:46;27.30;99.90
6379;DHT22;3222;48.858;10.128;2023-06-22T11:31:12;27.30;99.90
6379;DHT22;3222;48.858;10.128;2023-06-22T11:33:38;27.30;99.90
6379;DHT22;3222;48.858;10.128;2023-06-22T11:36:04;27.30;99.90
6379;DHT22;3222;48.858;10.128;2023-06-22T11:38:30;27.40;99.90
6379;DHT22;3222;48.858;10.128;2023-06-22T11:40:58;27.40;99.90
6379;DHT22;3222;48.858;10.128;2023-06-22T11:43:24;27.30;99.90
6379;DHT22;3222;48.858;10.128;2023-06-22T11:45:49;27.30;99.90
6379;DHT22;3222;48.858;10.128;2023-06-22T11:48:16;27.30;99.90
6379;DHT22;3222;48.858;10.128;2023-06-22T11:50:41;27.30;99.90
6379;DHT22;3222;48.858;10.128;2023-06-22T11:53:07;27.30;99.90
6379;DHT22;3222;48.858;10.128;2023-06-22T11:55:33;27.40;99.90
6379;DHT22;3222;48.858;10.128;2023-06-22T11:57:59;27.50;99.90
6379;DHT22;3222;48.858;10.128;2023-06-22T12:00:29;27.60;99.90
6379;DHT22;3222;48.858;10.128;2023-06-22T12:02:55;27.80;99.90
6379;DHT22;3222;48.858;10.128;2023-06-22T12:05:21;27.90;99.90
6379;DHT22;3222;48.858;10.128;2023-06-22T12:07:48;27.90;99.90
6379;DHT22;3222;48.858;10.128;2023-06-22T12:10:14;27.90;99.90
6379;DHT22;3222;48.858;10.128;2023-06-22T12:12:40;27.90;99.90
6379;DHT22;3222;48.858;10.128;2023-06-22T12:15:06;27.90;99.90
6379;DHT22;3222;48.858;10.128;2023-06-22T12:17:33;27.90;99.90
6379;DHT22;3222;48.858;10.128;2023-06-22T12:19:59;27.90;99.90
6379;DHT22;3222;48.858;10.128;2023-06-22T12:22:25;27.90;99.90
6379;DHT22;3222;48.858;10.128;2023-06-22T12:24:51;27.90;99.90
6379;DHT22;3222;48.858;10.128;2023-06-22T12:27:17;28.00;99.90
6379;DHT22;3222;48.858;10.128;2023-06-22T12:29:45;28.00;99.90
6379;DHT22;3222;48.858;10.128;2023-06-22T12:32:11;28.00;99.90
6379;DHT22;3222;48.858;10.128;2023-06-22T12:34:39;28.00;99.90
6379;DHT22;3222;48.858;10.128;2023-06-22T12:37:06;27.90;99.90
6379;DHT22;3222;48.858;10.128;2023-06-22T12:39:32;27.90;99.90
6379;DHT22;3222;48.858;10.128;2023-06-22T12:41:58;27.60;99.90
6379;DHT22;3222;48.858;10.128;2023-06-22T12:44:24;27.60;99.90
6379;DHT22;3222;48.858;10.128;2023-06-22T12:46:49;27.60;99.90
6379;DHT22;3222;48.858;10.128;2023-06-22T12:49:15;27.70;99.90
6379;DHT22;3222;48.858;10.128;2023-06-22T12:51:42;27.70;99.90
6379;DHT22;3222;48.858;10.128;2023-06-22T12:54:08;27.60;99.90
6379;DHT22;3222;48.858;10.128;2023-06-22T12:56:34;27.60;99.90
6379;DHT22;3222;48.858;10.128;2023-06-22T12:59:00;27.60;99.90
6379;DHT22;3222;48.858;10.128;2023-06-22T13:01:27;27.60;99.90
6379;DHT22;3222;48.858;10.128;2023-06-22T13:03:53;27.70;99.90
6379;DHT22;3222;48.858;10.128;2023-06-22T13:06:19;27.70;99.90
6379;DHT22;3222;48.858;10.128;2023-06-22T13:08:45;27.80;99.90
6379;DHT22;3222;48.858;10.128;2023-06-22T13:11:11;27.90;99.90
6379;DHT22;3222;48.858;10.128;2023-06-22T13:13:36;28.00;99.90
6379;DHT22;3222;48.858;10.128;2023-06-22T13:16:02;28.10;99.90
6379;DHT22;3222;48.858;10.128;2023-06-22T13:18:28;28.00;99.90
6379;DHT22;3222;48.858;10.128;2023-06-22T13:20:53;27.80;99.90
6379;DHT22;3222;48.858;10.128;2023-06-22T13:23:20;27.80;99.90
6379;DHT22;3222;48.858;10.128;2023-06-22T13:25:47;27.90;99.90
6379;DHT22;3222;48.858;10.128;2023-06-22T13:28:13;27.90;99.90
6379;DHT22;3222;48.858;10.128;2023-06-22T13:30:41;28.10;99.90
6379;DHT22;3222;48.858;10.128;2023-06-22T13:33:08;28.10;99.90
6379;DHT22;3222;48.858;10.128;2023-06-22T13:35:34;28.10;99.90
6379;DHT22;3222;48.858;10.128;2023-06-22T13:38:01;28.00;99.90
6379;DHT22;3222;48.858;10.128;2023-06-22T13:40:26;27.90;99.90
6379;DHT22;3222;48.858;10.128;2023-06-22T13:42:52;27.80;99.90
6379;DHT22;3222;48.858;10.128;2023-06-22T13:45:18;27.70;99.90
6379;DHT22;3222;48.858;10.128;2023-06-22T13:47:45;27.60;99.90
6379;DHT22;3222;48.858;10.128;2023-06-22T13:50:11;27.60;99.90
6379;DHT22;3222;48.858;10.128;2023-06-22T13:52:39;27.60;99.90
6379;DHT22;3222;48.858;10.128;2023-06-22T13:55:05;27.50;99.90
6379;DHT22;3222;48.858;10.128;2023-06-22T13:57:33;27.60;99.90
6379;DHT22;3222;48.858;10.128;2023-06-22T13:59:59;27.70;99.90
6379;DHT22;3222;48.858;10.128;2023-06-22T14:02:28;27.90;99.90
6379;DHT22;3222;48.858;10.128;2023-06-22T14:04:54;27.90;99.90
6379;DHT22;3222;48.858;10.128;2023-06-22T14:07:19;27.90;99.90
6379;DHT22;3222;48.858;10.128;2023-06-22T14:09:46;27.90;99.90
6379;DHT22;3222;48.858;10.128;2023-06-22T14:12:12;28.00;99.90
6379;DHT22;3222;48.858;10.128;2023-06-22T14:14:38;27.90;99.90
6379;DHT22;3222;48.858;10.128;2023-06-22T14:17:05;27.90;99.90
6379;DHT22;3222;48.858;10.128;2023-06-22T14:19:30;27.90;99.90
6379;DHT22;3222;48.858;10.128;2023-06-22T14:21:56;27.80;99.90
6379;DHT22;3222;48.858;10.128;2023-06-22T14:24:24;27.80;99.90
6379;DHT22;3222;48.858;10.128;2023-06-22T14:26:50;27.90;99.90
6379;DHT22;3222;48.858;10.128;2023-06-22T14:29:16;27.80;99.90
6379;DHT22;3222;48.858;10.128;2023-06-22T14:31:45;27.80;99.90
6379;DHT22;3222;48.858;10.128;2023-06-22T14:34:11;27.80;99.90
6379;DHT22;3222;48.858;10.128;2023-06-22T14:36:36;27.80;99.90
6379;DHT22;3222;48.858;10.128;2023-06-22T14:39:02;27.80;99.90
6379;DHT22;3222;48.858;10.128;2023-06-22T14:41:28;28.00;99.90
6379;DHT22;3222;48.858;10.128;2023-06-22T14:43:54;28.00;99.90
6379;DHT22;3222;48.858;10.128;2023-06-22T14:46:20;28.00;99.90
6379;DHT22;3222;48.858;10.128;2023-06-22T14:48:46;27.90;99.90
6379;DHT22;3222;48.858;10.128;2023-06-22T14:51:12;28.10;99.90
6379;DHT22;3222;48.858;10.128;2023-06-22T14:53:38;28.10;99.90
6379;DHT22;3222;48.858;10.128;2023-06-22T14:56:05;28.20;99.90
6379;DHT22;3222;48.858;10.128;2023-06-22T14:58:31;28.30;99.90
6379;DHT22;3222;48.858;10.128;2023-06-22T15:01:04;28.30;99.90
6379;DHT22;3222;48.858;10.128;2023-06-22T15:03:31;28.40;99.90
6379;DHT22;3222;48.858;10.128;2023-06-22T15:05:58;28.60;99.90
6379;DHT22;3222;48.858;10.128;2023-06-22T15:08:24;28.70;99.90
6379;DHT22;3222;48.858;10.128;2023-06-22T15:10:51;28.60;99.90
6379;DHT22;3222;48.858;10.128;2023-06-22T15:13:17;28.60;99.90
6379;DHT22;3222;48.858;10.128;2023-06-22T15:15:46;28.60;99.90
6379;DHT22;3222;48.858;10.128;2023-06-22T15:18:14;28.60;99.90
6379;DHT22;3222;48.858;10.128;2023-06-22T15:20:40;28.60;99.90
6379;DHT22;3222;48.858;10.128;2023-06-22T15:23:07;28.70;99.90
6379;DHT22;3222;48.858;10.128;2023-06-22T15:25:34;28.70;99.90
6379;DHT22;3222;48.858;10.128;2023-06-22T15:27:59;28.90;99.90
6379;DHT22;3222;48.858;10.128;2023-06-22T15:30:25;29.00;99.90
6379;DHT22;3222;48.858;10.128;2023-06-22T15:32:51;29.10;99.90
6379;DHT22;3222;48.858;10.128;2023-06-22T15:35:17;29.00;99.90
6379;DHT22;3222;48.858;10.128;2023-06-22T15:37:44;29.00;99.50
6379;DHT22;3222;48.858;10.128;2023-06-22T15:40:11;28.90;99.20
6379;DHT22;3222;48.858;10.128;2023-06-22T15:42:37;28.90;99.00
6379;DHT22;3222;48.858;10.128;2023-06-22T15:45:05;28.80;99.30
6379;DHT22;3222;48.858;10.128;2023-06-22T15:47:31;28.90;99.30
6379;DHT22;3222;48.858;10.128;2023-06-22T15:49:56;29.00;99.10
6379;DHT22;3222;48.858;10.128;2023-06-22T15:52:22;28.90;98.70